Weather forecast for Kursk, towing flights (Курск)

Russia, 209 m
N51.642, E36.228


Sounding

Red line — air temperature ˚C.
Blue line — thermal bubble temperature ˚C.
Green line — dew point temperature ˚C.
Wind speed is in meters per second.

Table forecast

GFS 0.25˚ model

temp. wind gust humid. clouds prec. press. hpbl
Tue18 00:00 18 172.0 s 0 1 76 0 0.0 1016 27
03:00 17 185.0 s 1 2 79 5 0.0 1015 49
06:00 18 199.0 ssw 2 3 80 2 0.0 1015 111
09:00 23 219.0 sw 3 4 66 1 0.0 1015 549
12:00 25 241.0 wsw 4 5 69 0 1.6 1014 1014
15:00 26 280.0 w 3 5 67 1 5.6 1014 1188
18:00 24 329.0 nnw 4 6 75 2 2.3 1013 960
21:00 21 341.0 nnw 3 6 85 1 3.4 1013 251
 
Wed19 00:00 19 1.0 n 3 7 89 9 1.6 1014 216
03:00 18 14.0 nne 3 6 90 7 1.6 1015 174
06:00 17 23.0 nne 3 7 86 0 0.0 1015 229
09:00 21 31.0 nne 3 5 75 0 0.0 1016 430
12:00 25 46.0 ne 3 4 57 0 0.0 1017 1343
15:00 26 46.0 ne 3 4 54 0 0.1 1016 1632
18:00 25 31.0 nne 3 3 67 12 0.6 1016 993
21:00 21 34.0 ne 3 5 76 43 1.1 1017 201
 
Thu20 00:00 18 75.0 ene 3 5 83 41 0.0 1018 131
03:00 17 77.0 ene 2 2 84 39 0.0 1018 79
06:00 18 65.0 ene 2 3 84 95 0.0 1019 137
09:00 22 72.0 ene 2 3 67 67 0.0 1018 478
12:00 25 69.0 ene 3 3 50 11 0.0 1019 1163
15:00 26 96.0 e 3 3 48 52 0.0 1018 1475
18:00 25 92.0 e 2 3 60 33 0.0 1017 1537
21:00 21 88.0 e 2 3 67 17 0.0 1018 158
 
Fri21 00:00 19 99.0 e 2 3 74 0 0.0 1019 75
03:00 17 82.0 e 2 3 78 0 0.0 1019 78
06:00 18 92.0 e 2 2 79 0 0.0 1019 103
09:00 23 113.0 ese 3 4 68 0 0.0 1019 484
12:00 26 129.0 se 4 4 55 0 0.1 1019 1555
15:00 27 125.0 se 3 4 53 0 0.1 1019 1644
18:00 26 110.0 ese 3 4 62 0 0.0 1018 1535
21:00 22 112.0 ese 2 3 71 7 0.0 1019 133
 
Sat22 00:00 20 133.0 se 2 3 78 0 0.0 1019 77
03:00 18 126.0 se 2 3 79 0 0.0 1019 75
06:00 19 121.0 ese 2 3 80 0 0.0 1020 117
09:00 24 135.0 se 3 5 68 1 0.1 1019 529
12:00 27 155.0 sse 4 5 56 1 0.1 1019 1619
15:00 28 171.0 s 4 5 54 6 0.1 1019 1742
18:00 27 175.0 s 3 4 63 0 0.1 1018 1380
21:00 23 158.0 sse 2 3 67 7 0.1 1019 110
 

0.015 s